Terminal Aerodrome Forecast
Issued by NWS

Home | Current Version | Previous Version | Graphics & Text | Print | Product List | Glossary On
Versions: 1 2 3 4 5 6 7 8 9 10 11 12 13 14 15 16
000
FTUS43 KBIS 072100 AAB
TAFMOT
TAF AMD
KMOT 072134Z 0722/0818 25015G25KT P6SM VCTS SCT060 BKN100CB
     FM072145 31015G22KT P6SM -TSRA BKN060CB
     FM072200 32015G25KT P6SM BKN100
     FM080000 29012KT P6SM SCT080=

USA.gov is the U.S. government's official web portal to all federal, state and local government web resources and services.